DNO575 PANC-KSFO
Flight info
| Callsign | DNO575 |
|---|---|
| Flight time | N/A |
| Altitude | 35000 |
| Route | NOEND LAIRE BKA AKWAY YZT J523 TOU Q801 WAPTO J501 HQM RBG ENVIE MLBEC BDEGA4 |
| Aircraft | B738/M-SDE2E3FGHIRWXY/LB1 |
Departure
| Time | N/A |
|---|---|
| Airport | Ted Stevens Anchorage International Airport (PANC) |
Arrival
| Time | 2026-04-30 20:08 |
|---|---|
| Airport | San Francisco International Airport (KSFO) |
| Time | Latitude | Longitude | Altitude | Speed | Heading |
|---|---|---|---|---|---|
| 2026-04-30 15:12 | 61.17539 | -149.98462 | 116 ft | 0 kts | 96° |
| 2026-04-30 17:39 | 51.94275 | -128.78781 | 35272 ft | 440 kts | 148° |
| 2026-04-30 17:42 | 51.69460 | -128.49950 | 35267 ft | 440 kts | 149° |
| 2026-04-30 17:43 | 51.57006 | -128.35629 | 35262 ft | 440 kts | 149° |
| 2026-04-30 17:44 | 51.42086 | -128.18603 | 35236 ft | 439 kts | 149° |
| 2026-04-30 17:47 | 51.19610 | -127.93214 | 35260 ft | 441 kts | 149° |
| 2026-04-30 17:48 | 51.01980 | -127.73513 | 35269 ft | 443 kts | 149° |
| 2026-04-30 17:50 | 50.81826 | -127.51216 | 35270 ft | 441 kts | 150° |
| 2026-04-30 17:52 | 50.66785 | -127.34634 | 35261 ft | 439 kts | 148° |
| 2026-04-30 17:54 | 50.45065 | -127.08145 | 35254 ft | 438 kts | 147° |
| 2026-04-30 17:56 | 50.25676 | -126.84873 | 35231 ft | 440 kts | 147° |
| 2026-04-30 17:58 | 50.11045 | -126.67470 | 35211 ft | 442 kts | 147° |
| 2026-04-30 18:00 | 49.91617 | -126.44568 | 35210 ft | 436 kts | 147° |
| 2026-04-30 18:01 | 49.79285 | -126.30162 | 35210 ft | 451 kts | 147° |
| 2026-04-30 18:02 | 49.64244 | -126.12707 | 35211 ft | 452 kts | 147° |
| 2026-04-30 18:04 | 49.49248 | -125.95443 | 35222 ft | 445 kts | 147° |
| 2026-04-30 18:06 | 49.29586 | -125.73012 | 35223 ft | 437 kts | 147° |
| 2026-04-30 18:08 | 49.12541 | -125.53749 | 35226 ft | 435 kts | 147° |
| 2026-04-30 18:10 | 48.92938 | -125.31792 | 35226 ft | 441 kts | 147° |
| 2026-04-30 18:11 | 48.75551 | -125.12481 | 35229 ft | 443 kts | 147° |
| 2026-04-30 18:13 | 48.63081 | -124.98734 | 35205 ft | 443 kts | 147° |
| 2026-04-30 18:14 | 48.50621 | -124.85081 | 35220 ft | 443 kts | 147° |
| 2026-04-30 18:15 | 48.35596 | -124.68753 | 35225 ft | 445 kts | 147° |
| 2026-04-30 18:16 | 48.25829 | -124.60493 | 35226 ft | 439 kts | 165° |
| 2026-04-30 18:17 | 48.19987 | -124.57755 | 35210 ft | 440 kts | 165° |
| 2026-04-30 18:18 | 48.11207 | -124.53600 | 35199 ft | 442 kts | 165° |
| 2026-04-30 18:18 | 48.05339 | -124.50779 | 35195 ft | 443 kts | 165° |
| 2026-04-30 18:19 | 47.99472 | -124.47954 | 35192 ft | 443 kts | 165° |
| 2026-04-30 18:19 | 47.93639 | -124.45153 | 35198 ft | 443 kts | 165° |
| 2026-04-30 18:20 | 47.87774 | -124.42345 | 35193 ft | 442 kts | 165° |
| 2026-04-30 18:20 | 47.81919 | -124.39549 | 35184 ft | 442 kts | 165° |
| 2026-04-30 18:21 | 47.76058 | -124.36756 | 35197 ft | 442 kts | 165° |
| 2026-04-30 18:21 | 47.70199 | -124.33972 | 35202 ft | 442 kts | 165° |
| 2026-04-30 18:22 | 47.64372 | -124.31208 | 35208 ft | 442 kts | 165° |
| 2026-04-30 18:22 | 47.55565 | -124.27043 | 35200 ft | 443 kts | 165° |
| 2026-04-30 18:23 | 47.49692 | -124.24274 | 35201 ft | 443 kts | 165° |
| 2026-04-30 18:23 | 47.43699 | -124.22377 | 35209 ft | 439 kts | 176° |
| 2026-04-30 18:24 | 47.34581 | -124.21073 | 35197 ft | 441 kts | 176° |
| 2026-04-30 18:25 | 47.28474 | -124.20158 | 35201 ft | 442 kts | 176° |
| 2026-04-30 18:25 | 47.19289 | -124.18725 | 35207 ft | 443 kts | 176° |
| 2026-04-30 18:26 | 47.10080 | -124.17287 | 35183 ft | 444 kts | 176° |
| 2026-04-30 18:27 | 47.00886 | -124.15858 | 35177 ft | 445 kts | 176° |
| 2026-04-30 18:28 | 46.91644 | -124.14348 | 35164 ft | 446 kts | 174° |
| 2026-04-30 18:28 | 46.82445 | -124.12212 | 35179 ft | 447 kts | 173° |
| 2026-04-30 18:29 | 46.70164 | -124.09371 | 35165 ft | 447 kts | 173° |
| 2026-04-30 18:30 | 46.57846 | -124.06608 | 35174 ft | 447 kts | 174° |
| 2026-04-30 18:31 | 46.48634 | -124.04561 | 35153 ft | 449 kts | 173° |
| 2026-04-30 18:32 | 46.39350 | -124.02500 | 35157 ft | 450 kts | 173° |
| 2026-04-30 18:33 | 46.30054 | -124.00441 | 35159 ft | 451 kts | 173° |
| 2026-04-30 18:33 | 46.20737 | -123.98385 | 35154 ft | 451 kts | 173° |
| 2026-04-30 18:34 | 46.11433 | -123.96339 | 35155 ft | 451 kts | 174° |
| 2026-04-30 18:35 | 46.05232 | -123.94979 | 35157 ft | 451 kts | 174° |
| 2026-04-30 18:35 | 45.99023 | -123.93621 | 35148 ft | 451 kts | 174° |
| 2026-04-30 18:36 | 45.89747 | -123.91597 | 35159 ft | 451 kts | 174° |
| 2026-04-30 18:37 | 45.80425 | -123.89571 | 35149 ft | 452 kts | 174° |
| 2026-04-30 18:37 | 45.74202 | -123.88221 | 35142 ft | 452 kts | 174° |
| 2026-04-30 18:38 | 45.67978 | -123.86875 | 35153 ft | 452 kts | 174° |
| 2026-04-30 18:38 | 45.61754 | -123.85532 | 35143 ft | 452 kts | 174° |
| 2026-04-30 18:39 | 45.55531 | -123.84191 | 35142 ft | 452 kts | 174° |
| 2026-04-30 18:39 | 45.49306 | -123.82853 | 35149 ft | 452 kts | 174° |
| 2026-04-30 18:40 | 45.43084 | -123.81520 | 35148 ft | 452 kts | 174° |
| 2026-04-30 18:40 | 45.36856 | -123.80188 | 35145 ft | 453 kts | 174° |
| 2026-04-30 18:41 | 45.30656 | -123.78865 | 35147 ft | 453 kts | 174° |
| 2026-04-30 18:41 | 45.24413 | -123.77535 | 35147 ft | 454 kts | 174° |
| 2026-04-30 18:42 | 45.18165 | -123.76207 | 35148 ft | 454 kts | 174° |
| 2026-04-30 18:42 | 45.08775 | -123.74217 | 35135 ft | 454 kts | 174° |
| 2026-04-30 18:45 | 44.74370 | -123.66983 | 35161 ft | 456 kts | 174° |
| 2026-04-30 18:46 | 44.68088 | -123.65671 | 35154 ft | 456 kts | 174° |
| 2026-04-30 18:46 | 44.61801 | -123.64362 | 35165 ft | 457 kts | 174° |
| 2026-04-30 18:47 | 44.55502 | -123.63053 | 35168 ft | 458 kts | 174° |
| 2026-04-30 18:47 | 44.49186 | -123.61743 | 35161 ft | 459 kts | 174° |
| 2026-04-30 18:48 | 44.42863 | -123.60434 | 35163 ft | 460 kts | 174° |
| 2026-04-30 18:48 | 44.36534 | -123.59127 | 35176 ft | 460 kts | 174° |
| 2026-04-30 18:49 | 44.30189 | -123.57820 | 35143 ft | 461 kts | 174° |
| 2026-04-30 18:49 | 44.23837 | -123.56507 | 35138 ft | 462 kts | 174° |
| 2026-04-30 18:50 | 44.17480 | -123.55206 | 35154 ft | 463 kts | 174° |
| 2026-04-30 18:50 | 44.11140 | -123.53911 | 35157 ft | 464 kts | 174° |
| 2026-04-30 18:51 | 44.04741 | -123.52605 | 35158 ft | 465 kts | 174° |
| 2026-04-30 18:51 | 43.98336 | -123.51300 | 35155 ft | 466 kts | 174° |
| 2026-04-30 18:52 | 43.91915 | -123.49994 | 35151 ft | 466 kts | 174° |
| 2026-04-30 18:52 | 43.85491 | -123.48690 | 35145 ft | 467 kts | 175° |
| 2026-04-30 18:53 | 43.79059 | -123.47387 | 35145 ft | 467 kts | 175° |
| 2026-04-30 18:53 | 43.72618 | -123.46086 | 35141 ft | 467 kts | 175° |
| 2026-04-30 18:54 | 43.66220 | -123.44796 | 35149 ft | 467 kts | 175° |
| 2026-04-30 18:54 | 43.59783 | -123.43501 | 35147 ft | 468 kts | 175° |
| 2026-04-30 18:55 | 43.53336 | -123.42206 | 35144 ft | 468 kts | 175° |
| 2026-04-30 18:55 | 43.43654 | -123.40267 | 35159 ft | 469 kts | 175° |
| 2026-04-30 18:56 | 43.33933 | -123.38327 | 35152 ft | 472 kts | 175° |
| 2026-04-30 18:57 | 43.24165 | -123.36384 | 35151 ft | 473 kts | 175° |
| 2026-04-30 18:57 | 43.17627 | -123.35109 | 35147 ft | 474 kts | 177° |
| 2026-04-30 18:58 | 43.07793 | -123.34231 | 35125 ft | 472 kts | 181° |
| 2026-04-30 18:59 | 42.97954 | -123.33577 | 35119 ft | 472 kts | 180° |
| 2026-04-30 19:00 | 42.84866 | -123.32562 | 35121 ft | 473 kts | 180° |
| 2026-04-30 19:01 | 42.71713 | -123.31521 | 35111 ft | 473 kts | 180° |
| 2026-04-30 19:02 | 42.61861 | -123.30747 | 35111 ft | 472 kts | 180° |
| 2026-04-30 19:03 | 42.48766 | -123.29723 | 35107 ft | 469 kts | 180° |
| 2026-04-30 19:04 | 42.35768 | -123.28711 | 35109 ft | 467 kts | 180° |
| 2026-04-30 19:05 | 42.22820 | -123.27708 | 35106 ft | 467 kts | 180° |
| 2026-04-30 19:06 | 42.10914 | -123.26788 | 35082 ft | 468 kts | 181° |
| 2026-04-30 19:06 | 42.01150 | -123.26038 | 35111 ft | 469 kts | 181° |
| 2026-04-30 19:07 | 41.91347 | -123.25286 | 35115 ft | 471 kts | 181° |
| 2026-04-30 19:08 | 41.78249 | -123.24284 | 35102 ft | 471 kts | 181° |
| 2026-04-30 19:09 | 41.68451 | -123.23537 | 35111 ft | 470 kts | 181° |
| 2026-04-30 19:09 | 41.61912 | -123.23041 | 35102 ft | 470 kts | 181° |
| 2026-04-30 19:10 | 41.48871 | -123.22053 | 35089 ft | 471 kts | 181° |
| 2026-04-30 19:11 | 41.39055 | -123.21311 | 35072 ft | 471 kts | 181° |
| 2026-04-30 19:12 | 41.32518 | -123.20813 | 35060 ft | 471 kts | 180° |
| 2026-04-30 19:12 | 41.25989 | -123.20161 | 35072 ft | 471 kts | 180° |
| 2026-04-30 19:13 | 41.12934 | -123.18735 | 35033 ft | 470 kts | 180° |
| 2026-04-30 19:14 | 41.06412 | -123.18046 | 35030 ft | 470 kts | 180° |
| 2026-04-30 19:14 | 40.99876 | -123.17365 | 35047 ft | 470 kts | 180° |
| 2026-04-30 19:15 | 40.93343 | -123.16686 | 35045 ft | 471 kts | 180° |
| 2026-04-30 19:15 | 40.83538 | -123.15667 | 35018 ft | 471 kts | 180° |
| 2026-04-30 19:16 | 40.77063 | -123.14993 | 35028 ft | 468 kts | 180° |
| 2026-04-30 19:17 | 40.67303 | -123.13986 | 35018 ft | 469 kts | 180° |
| 2026-04-30 19:17 | 40.57536 | -123.12979 | 35021 ft | 469 kts | 180° |
| 2026-04-30 19:18 | 40.47764 | -123.11975 | 34995 ft | 470 kts | 180° |
| 2026-04-30 19:19 | 40.41241 | -123.11306 | 35014 ft | 470 kts | 180° |
| 2026-04-30 19:19 | 40.31432 | -123.10302 | 35011 ft | 471 kts | 180° |
| 2026-04-30 19:20 | 40.24895 | -123.09635 | 35018 ft | 472 kts | 180° |
| 2026-04-30 19:21 | 40.15057 | -123.08634 | 34994 ft | 473 kts | 180° |
| 2026-04-30 19:22 | 40.01936 | -123.07302 | 35020 ft | 475 kts | 180° |
| 2026-04-30 19:23 | 39.82195 | -123.05306 | 35016 ft | 473 kts | 180° |
| 2026-04-30 19:24 | 39.72332 | -123.04316 | 35005 ft | 474 kts | 180° |
| 2026-04-30 19:25 | 39.55906 | -123.02671 | 34996 ft | 474 kts | 180° |
| 2026-04-30 19:26 | 39.42747 | -123.01358 | 35000 ft | 474 kts | 180° |
| 2026-04-30 19:27 | 39.32887 | -123.00377 | 35012 ft | 474 kts | 180° |
| 2026-04-30 19:28 | 39.23062 | -122.99404 | 35018 ft | 474 kts | 180° |
| 2026-04-30 19:29 | 39.10037 | -122.98108 | 34988 ft | 450 kts | 181° |
| 2026-04-30 19:29 | 39.06967 | -122.97800 | 34990 ft | 435 kts | 181° |
| 2026-04-30 19:30 | 38.98316 | -122.96948 | 34988 ft | 395 kts | 182° |
| 2026-04-30 19:31 | 38.87219 | -122.95866 | 35044 ft | 414 kts | 179° |
| 2026-04-30 19:31 | 38.78606 | -122.93401 | 34998 ft | 425 kts | 171° |
| 2026-04-30 19:32 | 38.72970 | -122.91605 | 34992 ft | 415 kts | 172° |
| 2026-04-30 19:32 | 38.67352 | -122.89933 | 35011 ft | 415 kts | 172° |
| 2026-04-30 19:33 | 38.61710 | -122.88275 | 35050 ft | 416 kts | 172° |
| 2026-04-30 19:33 | 38.56052 | -122.86609 | 35048 ft | 418 kts | 172° |
| 2026-04-30 19:34 | 38.50383 | -122.84939 | 35049 ft | 419 kts | 172° |
| 2026-04-30 19:35 | 38.41842 | -122.82428 | 35047 ft | 419 kts | 172° |
| 2026-04-30 19:35 | 38.36153 | -122.80758 | 35035 ft | 420 kts | 172° |
| 2026-04-30 19:36 | 38.30461 | -122.79091 | 35026 ft | 420 kts | 172° |
| 2026-04-30 19:36 | 38.21962 | -122.76606 | 35039 ft | 419 kts | 172° |
| 2026-04-30 19:37 | 38.16270 | -122.74951 | 35044 ft | 419 kts | 172° |
| 2026-04-30 19:37 | 38.10586 | -122.73300 | 35035 ft | 418 kts | 172° |
| 2026-04-30 19:38 | 38.04918 | -122.71656 | 35033 ft | 418 kts | 172° |
| 2026-04-30 19:38 | 37.99256 | -122.70015 | 35037 ft | 417 kts | 172° |
| 2026-04-30 19:39 | 37.93612 | -122.68383 | 35057 ft | 416 kts | 172° |
| 2026-04-30 19:39 | 37.88226 | -122.65696 | 35069 ft | 426 kts | 143° |
| 2026-04-30 19:40 | 37.83730 | -122.60793 | 35073 ft | 427 kts | 141° |
| 2026-04-30 19:40 | 37.79195 | -122.55915 | 35061 ft | 428 kts | 142° |
| 2026-04-30 19:41 | 37.74617 | -122.51086 | 35065 ft | 429 kts | 142° |
| 2026-04-30 19:41 | 37.70081 | -122.46279 | 34914 ft | 425 kts | 142° |
| 2026-04-30 19:42 | 37.67783 | -122.43957 | 34522 ft | 422 kts | 148° |
| 2026-04-30 19:42 | 37.65317 | -122.41892 | 33575 ft | 434 kts | 150° |
| 2026-04-30 19:42 | 37.62690 | -122.39838 | 32481 ft | 450 kts | 151° |
| 2026-04-30 19:42 | 37.59989 | -122.37838 | 31957 ft | 450 kts | 153° |
| 2026-04-30 19:43 | 37.57280 | -122.35917 | 31712 ft | 442 kts | 153° |
| 2026-04-30 19:43 | 37.54628 | -122.34054 | 31640 ft | 431 kts | 154° |
| 2026-04-30 19:43 | 37.52039 | -122.32241 | 31513 ft | 421 kts | 154° |
| 2026-04-30 19:44 | 37.46910 | -122.28817 | 30834 ft | 415 kts | 157° |
| 2026-04-30 19:44 | 37.44308 | -122.27247 | 30450 ft | 413 kts | 158° |
| 2026-04-30 19:44 | 37.41716 | -122.25708 | 30121 ft | 409 kts | 158° |
| 2026-04-30 19:44 | 37.39164 | -122.24201 | 29629 ft | 402 kts | 158° |
| 2026-04-30 19:45 | 37.36637 | -122.22718 | 29000 ft | 399 kts | 158° |
| 2026-04-30 19:45 | 37.34123 | -122.21251 | 28331 ft | 398 kts | 158° |
| 2026-04-30 19:45 | 37.31619 | -122.19799 | 27715 ft | 395 kts | 158° |
| 2026-04-30 19:45 | 37.29136 | -122.18369 | 27140 ft | 391 kts | 158° |
| 2026-04-30 19:46 | 37.26672 | -122.16961 | 26586 ft | 388 kts | 158° |
| 2026-04-30 19:46 | 37.24221 | -122.15574 | 26063 ft | 384 kts | 158° |
| 2026-04-30 19:46 | 37.21792 | -122.14210 | 25532 ft | 381 kts | 158° |
| 2026-04-30 19:46 | 37.19380 | -122.12864 | 25003 ft | 378 kts | 158° |
| 2026-04-30 19:47 | 37.16980 | -122.11536 | 24503 ft | 375 kts | 158° |
| 2026-04-30 19:47 | 37.15404 | -122.10670 | 24176 ft | 373 kts | 158° |
| 2026-04-30 19:47 | 37.12232 | -122.08940 | 23495 ft | 370 kts | 157° |
| 2026-04-30 19:47 | 37.10024 | -122.07341 | 22878 ft | 367 kts | 138° |
| 2026-04-30 19:48 | 37.08411 | -122.04911 | 22324 ft | 360 kts | 115° |
| 2026-04-30 19:48 | 37.07630 | -122.01998 | 21789 ft | 349 kts | 92° |
| 2026-04-30 19:48 | 37.07759 | -121.99027 | 21262 ft | 337 kts | 70° |
| 2026-04-30 19:48 | 37.08741 | -121.96449 | 20730 ft | 324 kts | 47° |
| 2026-04-30 19:49 | 37.10385 | -121.94603 | 20207 ft | 314 kts | 29° |
| 2026-04-30 19:49 | 37.14154 | -121.91950 | 19214 ft | 308 kts | 25° |
| 2026-04-30 19:49 | 37.16019 | -121.90716 | 18726 ft | 306 kts | 25° |
| 2026-04-30 19:50 | 37.17900 | -121.89483 | 18259 ft | 303 kts | 25° |
| 2026-04-30 19:50 | 37.19764 | -121.88269 | 17714 ft | 301 kts | 25° |
| 2026-04-30 19:50 | 37.21621 | -121.87066 | 17189 ft | 299 kts | 25° |
| 2026-04-30 19:50 | 37.23470 | -121.85876 | 16656 ft | 298 kts | 25° |
| 2026-04-30 19:51 | 37.24691 | -121.85092 | 16307 ft | 297 kts | 25° |
| 2026-04-30 19:51 | 37.26553 | -121.83903 | 15779 ft | 295 kts | 25° |
| 2026-04-30 19:51 | 37.28384 | -121.82740 | 15280 ft | 294 kts | 25° |
| 2026-04-30 19:51 | 37.30210 | -121.81588 | 14791 ft | 293 kts | 25° |
| 2026-04-30 19:52 | 37.32043 | -121.80502 | 14296 ft | 290 kts | 17° |
| 2026-04-30 19:52 | 37.34023 | -121.80236 | 13828 ft | 286 kts | 350° |
| 2026-04-30 19:52 | 37.35827 | -121.81118 | 13517 ft | 276 kts | 324° |
| 2026-04-30 19:52 | 37.37114 | -121.82870 | 13091 ft | 277 kts | 300° |
| 2026-04-30 19:53 | 37.37760 | -121.85149 | 12731 ft | 279 kts | 279° |
| 2026-04-30 19:53 | 37.37786 | -121.87586 | 12471 ft | 278 kts | 269° |
| 2026-04-30 19:53 | 37.37676 | -121.90019 | 12171 ft | 278 kts | 268° |
| 2026-04-30 19:53 | 37.37569 | -121.92409 | 11871 ft | 277 kts | 269° |
| 2026-04-30 19:54 | 37.37448 | -121.94854 | 11564 ft | 277 kts | 263° |
| 2026-04-30 19:54 | 37.36783 | -121.97121 | 11231 ft | 280 kts | 236° |
| 2026-04-30 19:54 | 37.35399 | -121.98776 | 10976 ft | 280 kts | 211° |
| 2026-04-30 19:54 | 37.33582 | -121.99627 | 10676 ft | 279 kts | 190° |
| 2026-04-30 19:55 | 37.31659 | -121.99598 | 10401 ft | 277 kts | 163° |
| 2026-04-30 19:55 | 37.29970 | -121.98533 | 10158 ft | 272 kts | 140° |
| 2026-04-30 19:55 | 37.28743 | -121.96771 | 9881 ft | 268 kts | 119° |
| 2026-04-30 19:55 | 37.27838 | -121.94739 | 9601 ft | 266 kts | 117° |
| 2026-04-30 19:56 | 37.26963 | -121.92688 | 9284 ft | 266 kts | 117° |
| 2026-04-30 19:56 | 37.26125 | -121.90627 | 8983 ft | 264 kts | 109° |
| 2026-04-30 19:56 | 37.25904 | -121.88377 | 8687 ft | 261 kts | 82° |
| 2026-04-30 19:56 | 37.26469 | -121.86237 | 8379 ft | 259 kts | 58° |
| 2026-04-30 19:57 | 37.27558 | -121.84449 | 8119 ft | 257 kts | 50° |
| 2026-04-30 19:57 | 37.28703 | -121.82722 | 7810 ft | 258 kts | 50° |
| 2026-04-30 19:57 | 37.29853 | -121.80994 | 7542 ft | 257 kts | 50° |
| 2026-04-30 19:57 | 37.31095 | -121.79390 | 7184 ft | 259 kts | 31° |
| 2026-04-30 19:58 | 37.32801 | -121.78871 | 7048 ft | 258 kts | 353° |
| 2026-04-30 19:58 | 37.34447 | -121.79715 | 7032 ft | 262 kts | 325° |
| 2026-04-30 19:58 | 37.35879 | -121.81181 | 7012 ft | 269 kts | 317° |
| 2026-04-30 19:58 | 37.37250 | -121.82798 | 6988 ft | 270 kts | 317° |
| 2026-04-30 19:59 | 37.38619 | -121.84409 | 6975 ft | 268 kts | 317° |
| 2026-04-30 19:59 | 37.39976 | -121.86013 | 6967 ft | 268 kts | 313° |
| 2026-04-30 19:59 | 37.41828 | -121.90004 | 7007 ft | 254 kts | 298° |
| 2026-04-30 20:00 | 37.42622 | -121.91893 | 6987 ft | 235 kts | 298° |
| 2026-04-30 20:00 | 37.43362 | -121.93632 | 6947 ft | 217 kts | 298° |
| 2026-04-30 20:00 | 37.44061 | -121.95291 | 6647 ft | 212 kts | 298° |
| 2026-04-30 20:00 | 37.44744 | -121.96907 | 6393 ft | 206 kts | 298° |
| 2026-04-30 20:01 | 37.46064 | -122.00024 | 5873 ft | 197 kts | 298° |
| 2026-04-30 20:01 | 37.46701 | -122.01530 | 5624 ft | 193 kts | 299° |
| 2026-04-30 20:01 | 37.47324 | -122.03001 | 5379 ft | 188 kts | 299° |
| 2026-04-30 20:02 | 37.48531 | -122.05849 | 4949 ft | 184 kts | 299° |
| 2026-04-30 20:02 | 37.49131 | -122.07266 | 4722 ft | 183 kts | 299° |
| 2026-04-30 20:03 | 37.50323 | -122.10084 | 4255 ft | 182 kts | 299° |
| 2026-04-30 20:03 | 37.50916 | -122.11485 | 4037 ft | 181 kts | 299° |
| 2026-04-30 20:03 | 37.51509 | -122.12887 | 3809 ft | 181 kts | 299° |
| 2026-04-30 20:03 | 37.52101 | -122.14288 | 3580 ft | 181 kts | 300° |
| 2026-04-30 20:04 | 37.52692 | -122.15684 | 3365 ft | 180 kts | 301° |
| 2026-04-30 20:04 | 37.53308 | -122.17044 | 3152 ft | 177 kts | 301° |
| 2026-04-30 20:04 | 37.53900 | -122.18403 | 2922 ft | 176 kts | 299° |
| 2026-04-30 20:05 | 37.55045 | -122.21129 | 2487 ft | 177 kts | 298° |
| 2026-04-30 20:05 | 37.55615 | -122.22500 | 2266 ft | 176 kts | 297° |
| 2026-04-30 20:05 | 37.56722 | -122.25159 | 1844 ft | 163 kts | 296° |
| 2026-04-30 20:06 | 37.57243 | -122.26410 | 1641 ft | 158 kts | 296° |
| 2026-04-30 20:06 | 37.57737 | -122.27596 | 1442 ft | 151 kts | 295° |
| 2026-04-30 20:06 | 37.58217 | -122.28746 | 1270 ft | 147 kts | 296° |
| 2026-04-30 20:06 | 37.58698 | -122.29911 | 1023 ft | 152 kts | 296° |
| 2026-04-30 20:07 | 37.59173 | -122.31086 | 868 ft | 149 kts | 296° |
| 2026-04-30 20:07 | 37.59678 | -122.32231 | 626 ft | 146 kts | 297° |
| 2026-04-30 20:07 | 37.60585 | -122.34478 | 265 ft | 143 kts | 296° |
| 2026-04-30 20:08 | 37.61050 | -122.35562 | 109 ft | 139 kts | 296° |
| 2026-04-30 20:08 | 37.61493 | -122.36610 | 22 ft | 128 kts | 297° |
| 2026-04-30 20:08 | 37.61859 | -122.37475 | 19 ft | 91 kts | 298° |
| 2026-04-30 20:08 | 37.62084 | -122.38012 | 22 ft | 47 kts | 297° |
| 2026-04-30 20:09 | 37.62166 | -122.38209 | 22 ft | 3 kts | 290° |
| 2026-04-30 20:09 | 37.62169 | -122.38225 | 22 ft | 8 kts | 281° |
| 2026-04-30 20:09 | 37.62060 | -122.38250 | 23 ft | 14 kts | 120° |
| 2026-04-30 20:10 | 37.61969 | -122.38035 | 20 ft | 14 kts | 126° |
| 2026-04-30 20:10 | 37.61886 | -122.38002 | 22 ft | 13 kts | 195° |
| 2026-04-30 20:10 | 37.61841 | -122.38057 | 20 ft | 9 kts | 234° |
| 2026-04-30 20:11 | 37.61834 | -122.38070 | 21 ft | 0 kts | 234° |